Time;durP1;ratioP1;P1;durP2;ratioP2;P2;SDS_P1;SDS_P2;PMS_P1;PMS_P2;Temp;Humidity;BMP_temperature;BMP_pressure;BME280_temperature;BME280_humidity;BME280_pressure;Samples;Min_cycle;Max_cycle;Signal;HPM_P1;HPM_P2
2021/12/26 00:01:49;;;;;;;0.00;0.00;;;;;;;10.61;83.76;99029.41;7359635;19;20014;-59
2021/12/26 00:04:16;;;;;;;0.00;0.00;;;;;;;10.61;83.82;99024.19;7355396;19;20003;-59
2021/12/26 00:06:43;;;;;;;0.10;0.10;;;;;;;10.63;83.68;99032.75;7361645;19;20528;-59
2021/12/26 00:09:09;;;;;;;0.00;0.00;;;;;;;10.62;83.76;99033.69;7362667;19;20014;-59
2021/12/26 00:11:35;;;;;;;0.00;0.00;;;;;;;10.56;83.48;99020.94;7357271;19;20742;-59
2021/12/26 00:14:00;;;;;;;0.00;0.00;;;;;;;10.60;83.70;99022.50;7357979;19;20401;-58
2021/12/26 00:16:26;;;;;;;0.10;0.10;;;;;;;10.63;83.29;99027.53;7360743;19;20486;-59
2021/12/26 00:18:51;;;;;;;0.00;0.00;;;;;;;10.64;83.47;99033.59;7361312;19;20006;-59
2021/12/26 00:21:21;;;;;;;0.00;0.00;;;;;;;10.66;83.76;99029.16;7360663;19;20010;-58
2021/12/26 00:23:47;;;;;;;0.10;0.10;;;;;;;10.64;83.76;99028.38;7361561;19;20003;-59
2021/12/26 00:26:13;;;;;;;0.03;0.03;;;;;;;10.64;83.76;99029.25;7359916;19;20010;-59
2021/12/26 00:28:39;;;;;;;0.03;0.03;;;;;;;10.66;83.38;99026.56;7356850;19;20011;-58
2021/12/26 00:31:05;;;;;;;0.10;0.10;;;;;;;10.69;83.74;99041.22;7357268;19;20027;-59
2021/12/26 00:33:32;;;;;;;0.10;0.10;;;;;;;10.68;83.83;99023.88;7353799;19;20007;-59
2021/12/26 00:36:00;;;;;;;0.10;0.10;;;;;;;10.69;83.72;99030.78;7362046;19;20074;-60
2021/12/26 00:38:26;;;;;;;0.10;0.10;;;;;;;10.69;83.47;99036.00;7360507;19;20027;-59
2021/12/26 00:40:52;;;;;;;0.05;0.05;;;;;;;10.68;83.57;99034.31;7353090;19;20010;-58
2021/12/26 00:43:18;;;;;;;0.00;0.00;;;;;;;10.69;83.80;99031.63;7360585;19;20021;-59
2021/12/26 00:45:43;;;;;;;0.10;0.10;;;;;;;10.69;83.44;99036.00;7356942;19;20035;-59
2021/12/26 00:48:09;;;;;;;0.10;0.10;;;;;;;10.71;83.79;99036.78;7361265;19;20036;-59
2021/12/26 00:50:39;;;;;;;0.10;0.10;;;;;;;10.73;83.97;99025.31;7350028;19;20014;-58
2021/12/26 00:53:05;;;;;;;0.00;0.00;;;;;;;10.72;84.07;99030.63;7349466;19;20030;-59
2021/12/26 00:55:31;;;;;;;0.00;0.00;;;;;;;10.73;83.76;99033.16;7353001;19;20014;-60
2021/12/26 00:57:56;;;;;;;0.00;0.00;;;;;;;10.75;83.67;99035.72;7355282;19;20014;-60
2021/12/26 01:00:28;;;;;;;0.10;0.10;;;;;;;10.77;83.93;99032.09;7350500;19;20018;-60
2021/12/26 01:02:55;;;;;;;0.10;0.10;;;;;;;10.81;83.66;99038.00;7353740;19;20054;-60
2021/12/26 01:05:22;;;;;;;0.10;0.10;;;;;;;10.81;83.98;99035.41;7348707;19;20030;-59
2021/12/26 01:10:22;;;;;;;0.10;0.10;;;;;;;10.79;84.01;99016.34;7356513;19;20561;-59
2021/12/26 01:12:49;;;;;;;0.00;0.00;;;;;;;10.88;83.53;99026.31;7351157;19;20018;-59
2021/12/26 01:15:16;;;;;;;0.00;0.00;;;;;;;10.89;83.88;99028.00;7346782;19;20074;-59
2021/12/26 01:17:44;;;;;;;0.00;0.00;;;;;;;10.91;83.78;99027.03;7355921;19;20006;-59
2021/12/26 01:20:25;;;;;;;0.00;0.00;;;;;;;10.94;83.45;99026.00;7352727;19;20033;-59
2021/12/26 01:22:51;;;;;;;0.00;0.00;;;;;;;10.95;83.51;99022.50;7355629;19;20086;-59
2021/12/26 01:25:16;;;;;;;0.10;0.10;;;;;;;10.95;83.86;99022.50;7353758;19;20054;-59
2021/12/26 01:27:42;;;;;;;0.00;0.00;;;;;;;10.96;83.72;99018.09;7362710;19;20018;-59
2021/12/26 01:30:08;;;;;;;0.00;0.00;;;;;;;10.98;83.95;99011.88;7368595;19;20834;-58
2021/12/26 01:32:34;;;;;;;0.00;0.00;;;;;;;10.99;83.78;99007.50;7358673;19;20025;-59
2021/12/26 01:34:59;;;;;;;0.05;0.05;;;;;;;10.98;83.59;99005.81;7366415;19;20015;-59
2021/12/26 01:37:25;;;;;;;0.10;0.10;;;;;;;11.01;83.61;99003.06;7358518;19;20030;-59
2021/12/26 01:39:50;;;;;;;0.08;0.08;;;;;;;11.01;83.94;99011.72;7364132;19;20019;-59
2021/12/26 01:42:16;;;;;;;0.00;0.00;;;;;;;10.92;83.81;98996.53;7362954;19;20014;-59
2021/12/26 01:44:41;;;;;;;0.00;0.00;;;;;;;11.03;83.42;99016.84;7364804;19;20129;-60
2021/12/26 01:47:08;;;;;;;0.00;0.00;;;;;;;11.04;83.35;99010.72;7360774;19;20010;-59
2021/12/26 01:49:34;;;;;;;0.10;0.10;;;;;;;11.02;83.24;99012.56;7365288;19;20604;-58
2021/12/26 01:52:03;;;;;;;0.10;0.10;;;;;;;11.01;83.32;99006.50;7359205;19;20094;-58
2021/12/26 01:54:47;;;;;;;0.00;0.00;;;;;;;10.98;83.65;99004.03;7358138;19;20675;-59
2021/12/26 01:57:15;;;;;;;0.00;0.00;;;;;;;10.94;83.24;98999.88;7363766;19;20046;-59
2021/12/26 01:59:41;;;;;;;0.00;0.00;;;;;;;10.88;83.20;99003.66;7362279;19;20039;-59
2021/12/26 02:02:08;;;;;;;0.00;0.00;;;;;;;10.87;83.36;99003.75;7359240;19;20010;-59
2021/12/26 02:04:38;;;;;;;0.00;0.00;;;;;;;10.84;83.48;99002.13;7362774;19;20003;-59
2021/12/26 02:07:05;;;;;;;0.08;0.08;;;;;;;10.79;83.21;99003.28;7357959;19;20470;-59
2021/12/26 02:09:30;;;;;;;0.00;0.00;;;;;;;10.77;83.17;99012.97;7365165;19;20051;-58
2021/12/26 02:11:56;;;;;;;0.00;0.00;;;;;;;10.67;83.45;99002.13;7362724;19;20007;-58
2021/12/26 02:14:23;;;;;;;0.10;0.10;;;;;;;10.73;83.65;99011.44;7359008;19;22091;-59
2021/12/26 02:16:48;;;;;;;0.10;0.10;;;;;;;10.72;83.62;99009.75;7363362;19;21046;-59
2021/12/26 02:19:14;;;;;;;0.00;0.00;;;;;;;10.72;83.73;99022.81;7358844;19;20019;-59
2021/12/26 02:22:05;;;;;;;0.10;0.10;;;;;;;10.72;83.90;99020.19;7362886;19;20014;-59
2021/12/26 02:27:38;;;;;;;0.00;0.00;;;;;;;10.75;83.77;99014.81;7261543;19;2004641;-59
2021/12/26 02:30:11;;;;;;;0.00;0.00;;;;;;;10.78;83.47;99020.72;7359224;19;20094;-59
2021/12/26 02:32:37;;;;;;;0.10;0.10;;;;;;;10.73;83.56;99009.66;7363891;19;20022;-59
2021/12/26 02:35:03;;;;;;;0.08;0.08;;;;;;;10.78;83.48;99015.50;7359064;19;20006;-59
2021/12/26 02:37:29;;;;;;;0.08;0.08;;;;;;;10.78;83.56;99014.66;7360122;19;20013;-60
2021/12/26 02:39:54;;;;;;;0.10;0.10;;;;;;;10.79;83.59;99011.13;7362944;19;20022;-59
2021/12/26 02:42:22;;;;;;;0.10;0.10;;;;;;;10.78;83.53;99014.66;7354903;19;20023;-58
2021/12/26 02:44:48;;;;;;;0.00;0.00;;;;;;;10.68;83.80;98997.75;7364681;19;20154;-59
2021/12/26 02:47:28;;;;;;;0.00;0.00;;;;;;;10.79;83.65;99014.56;7362378;19;20188;-59
2021/12/26 02:50:05;;;;;;;0.08;0.08;;;;;;;10.67;83.38;98991.69;7363664;19;20098;-58
2021/12/26 02:52:30;;;;;;;0.00;0.00;;;;;;;10.76;83.50;99012.13;7363445;19;20086;-59
2021/12/26 02:55:00;;;;;;;0.00;0.00;;;;;;;10.78;83.59;99014.66;7359376;19;20105;-57
2021/12/26 02:57:26;;;;;;;0.00;0.00;;;;;;;10.75;83.60;99017.44;7354673;19;20007;-59
2021/12/26 02:59:52;;;;;;;0.10;0.10;;;;;;;10.76;83.41;99019.13;7356743;19;20014;-59
2021/12/26 03:02:18;;;;;;;0.00;0.00;;;;;;;10.75;83.41;99013.06;7365889;19;20031;-58
2021/12/26 03:04:43;;;;;;;0.00;0.00;;;;;;;10.75;83.97;99015.66;7365586;19;20014;-58
2021/12/26 03:07:09;;;;;;;0.10;0.10;;;;;;;10.76;83.60;99013.91;7355952;19;20022;-59
2021/12/26 03:09:44;;;;;;;0.00;0.00;;;;;;;10.77;83.96;99018.19;7361952;19;20090;-60
2021/12/26 03:12:10;;;;;;;0.00;0.00;;;;;;;10.78;83.58;99019.88;7359032;19;20443;-58
2021/12/26 03:14:38;;;;;;;0.10;0.10;;;;;;;10.79;83.77;99024.16;7365293;19;20906;-59
2021/12/26 03:17:04;;;;;;;0.00;0.00;;;;;;;10.78;83.48;99019.88;7363688;19;20018;-59
2021/12/26 03:19:36;;;;;;;0.00;0.00;;;;;;;10.82;83.31;99013.59;7358312;19;20015;-59
2021/12/26 03:22:03;;;;;;;0.00;0.00;;;;;;;10.80;83.89;99018.06;7364288;19;20018;-58
2021/12/26 03:24:28;;;;;;;0.00;0.00;;;;;;;10.68;83.50;98997.75;7364816;19;21200;-59
2021/12/26 03:27:03;;;;;;;0.05;0.05;;;;;;;10.84;83.88;99030.00;7361769;19;20089;-59
2021/12/26 03:29:29;;;;;;;0.10;0.10;;;;;;;10.82;83.95;99016.19;7363059;19;20010;-59
2021/12/26 03:31:55;;;;;;;0.00;0.00;;;;;;;10.83;83.46;99017.88;7367371;19;20040;-59
2021/12/26 03:34:20;;;;;;;0.00;0.00;;;;;;;10.83;83.70;99020.47;7363523;19;20471;-59
2021/12/26 03:36:50;;;;;;;0.00;0.00;;;;;;;10.79;83.42;99017.19;7360722;19;20555;-60
2021/12/26 03:39:15;;;;;;;0.10;0.10;;;;;;;10.82;83.30;99018.81;7365299;19;20355;-58
2021/12/26 03:41:42;;;;;;;0.10;0.10;;;;;;;10.84;83.50;99016.94;7357665;19;20018;-59
2021/12/26 03:44:07;;;;;;;0.10;0.10;;;;;;;10.83;83.34;99017.88;7358305;19;20633;-59
2021/12/26 03:46:33;;;;;;;0.10;0.10;;;;;;;10.74;83.10;99000.06;7365611;19;20019;-58
2021/12/26 03:49:03;;;;;;;0.05;0.05;;;;;;;10.82;83.54;99022.25;7360404;19;20002;-58
2021/12/26 03:51:29;;;;;;;0.10;0.10;;;;;;;10.84;83.71;99014.34;7367255;19;20709;-59
2021/12/26 03:53:55;;;;;;;0.10;0.10;;;;;;;10.84;83.68;99016.94;7366977;19;20026;-60
2021/12/26 03:56:20;;;;;;;0.00;0.00;;;;;;;10.84;83.52;99019.56;7361276;19;20013;-59
2021/12/26 03:58:46;;;;;;;0.10;0.10;;;;;;;10.79;83.34;99011.13;7361735;19;20043;-58
2021/12/26 04:01:11;;;;;;;0.10;0.10;;;;;;;10.85;83.16;99021.28;7361722;19;20003;-58
2021/12/26 04:03:37;;;;;;;0.00;0.00;;;;;;;10.85;83.15;99023.88;7364608;19;20017;-58
2021/12/26 04:06:03;;;;;;;0.10;0.10;;;;;;;10.87;83.36;99024.63;7360715;19;20014;-58
2021/12/26 04:08:29;;;;;;;0.03;0.03;;;;;;;10.85;83.36;99027.34;7359161;19;20392;-59
2021/12/26 04:10:54;;;;;;;0.00;0.00;;;;;;;10.86;83.33;99033.41;7362712;19;20007;-58
2021/12/26 04:13:20;;;;;;;0.05;0.05;;;;;;;10.85;83.53;99027.34;7358248;19;20011;-59
2021/12/26 04:15:46;;;;;;;0.00;0.00;;;;;;;10.86;83.55;99022.97;7360975;19;20014;-59
2021/12/26 04:18:11;;;;;;;0.10;0.10;;;;;;;10.86;83.48;99021.19;7363223;19;20009;-59
2021/12/26 04:20:37;;;;;;;0.00;0.00;;;;;;;10.85;83.56;99023.88;7360139;19;20021;-58
2021/12/26 04:23:03;;;;;;;0.00;0.00;;;;;;;10.71;83.16;98998.47;7362565;19;20640;-59
2021/12/26 04:25:28;;;;;;;0.10;0.10;;;;;;;10.83;83.01;99020.47;7364710;19;20462;-59
2021/12/26 04:27:54;;;;;;;0.10;0.10;;;;;;;10.82;83.26;99017.03;7363481;19;20010;-59
2021/12/26 04:30:21;;;;;;;0.00;0.00;;;;;;;10.78;82.93;99015.50;7362663;19;20010;-58
2021/12/26 04:32:47;;;;;;;0.00;0.00;;;;;;;10.73;83.04;99011.44;7362067;19;20010;-59
2021/12/26 04:35:13;;;;;;;0.00;0.00;;;;;;;10.76;83.37;99017.34;7364743;19;21068;-58
2021/12/26 04:37:39;;;;;;;0.00;0.00;;;;;;;10.74;83.30;99019.19;7362805;19;20038;-59
2021/12/26 04:40:08;;;;;;;0.10;0.10;;;;;;;10.75;83.19;99014.81;7360446;19;20014;-59
2021/12/26 04:42:33;;;;;;;0.00;0.00;;;;;;;10.73;83.62;99011.44;7364423;19;20613;-58
2021/12/26 04:44:59;;;;;;;0.00;0.00;;;;;;;10.72;83.37;99021.03;7363129;19;20010;-59
2021/12/26 04:47:24;;;;;;;0.08;0.08;;;;;;;10.72;83.35;99014.97;7360530;19;20722;-59
2021/12/26 04:49:50;;;;;;;0.03;0.03;;;;;;;10.72;83.51;99014.97;7356288;19;20007;-59
2021/12/26 04:52:15;;;;;;;0.00;0.00;;;;;;;10.60;83.53;98991.19;7362201;19;20010;-59
2021/12/26 04:54:41;;;;;;;0.08;0.08;;;;;;;10.75;83.72;99017.44;7360288;19;20057;-59
2021/12/26 04:57:06;;;;;;;0.00;0.00;;;;;;;10.75;83.41;99014.81;7359052;19;20006;-59
2021/12/26 04:59:32;;;;;;;0.00;0.00;;;;;;;10.63;83.68;99001.44;7364823;19;20039;-59
2021/12/26 05:01:57;;;;;;;0.00;0.00;;;;;;;10.65;83.91;99001.38;7364182;19;20093;-60
2021/12/26 05:04:23;;;;;;;0.10;0.10;;;;;;;10.64;83.73;98997.06;7370726;19;20014;-59
2021/12/26 05:06:49;;;;;;;0.00;0.00;;;;;;;10.62;83.70;98993.69;7365849;19;20029;-59
2021/12/26 05:09:14;;;;;;;0.00;0.00;;;;;;;10.77;83.25;99012.97;7369469;19;20014;-58
2021/12/26 05:11:41;;;;;;;0.00;0.00;;;;;;;10.74;83.20;99010.50;7370992;19;22032;-58
2021/12/26 05:14:06;;;;;;;0.00;0.00;;;;;;;10.72;83.51;99021.03;7364162;19;20006;-58
2021/12/26 05:16:32;;;;;;;0.00;0.00;;;;;;;10.71;83.39;99021.13;7371511;19;20470;-58
2021/12/26 05:18:57;;;;;;;0.10;0.10;;;;;;;10.66;83.30;99013.50;7367495;19;20673;-59
2021/12/26 05:21:23;;;;;;;0.10;0.10;;;;;;;10.62;83.21;99007.59;7367328;19;20074;-59
2021/12/26 05:23:48;;;;;;;0.00;0.00;;;;;;;10.56;82.95;99010.50;7369833;19;20021;-59
2021/12/26 05:26:14;;;;;;;0.05;0.05;;;;;;;10.48;83.09;99002.22;7368768;19;20010;-58
2021/12/26 05:28:39;;;;;;;0.00;0.00;;;;;;;10.45;82.93;99004.97;7370655;19;20014;-58
2021/12/26 05:31:05;;;;;;;0.00;0.00;;;;;;;10.35;83.05;99001.13;7362698;19;20037;-59
2021/12/26 05:33:30;;;;;;;0.10;0.10;;;;;;;10.40;83.37;99020.03;7369668;19;20611;-58
2021/12/26 05:35:56;;;;;;;0.00;0.00;;;;;;;10.37;83.30;99017.56;7370521;19;20007;-59
2021/12/26 05:38:21;;;;;;;0.10;0.10;;;;;;;10.35;83.59;99014.19;7361969;19;20362;-59
2021/12/26 05:40:47;;;;;;;0.10;0.10;;;;;;;10.31;83.15;99013.47;7370724;19;20015;-59
2021/12/26 05:43:12;;;;;;;0.08;0.08;;;;;;;10.31;83.60;99016.09;7361863;19;20492;-59
2021/12/26 05:45:38;;;;;;;0.00;0.00;;;;;;;10.30;83.45;99018.78;7367789;19;20010;-60
2021/12/26 05:48:04;;;;;;;0.00;0.00;;;;;;;10.27;83.27;99026.75;7369203;19;20041;-59
2021/12/26 05:50:29;;;;;;;0.10;0.10;;;;;;;10.24;83.49;99021.66;7363550;19;20683;-59
2021/12/26 05:52:55;;;;;;;0.10;0.10;;;;;;;10.23;83.67;99017.34;7370780;19;20952;-59
2021/12/26 05:55:20;;;;;;;0.10;0.10;;;;;;;10.21;83.73;99019.19;7365645;19;20041;-59
2021/12/26 05:57:46;;;;;;;0.00;0.00;;;;;;;10.20;83.34;99014.91;7368639;19;20017;-59
2021/12/26 06:00:15;;;;;;;0.00;0.00;;;;;;;10.23;83.48;99017.34;7369343;19;20364;-59
2021/12/26 06:02:41;;;;;;;0.00;0.00;;;;;;;10.22;83.42;99018.25;7364013;19;20996;-59
2021/12/26 06:05:07;;;;;;;0.03;0.03;;;;;;;10.24;83.96;99019.06;7367881;19;20006;-58
2021/12/26 06:07:33;;;;;;;0.00;0.00;;;;;;;10.23;83.50;99012.97;7366636;19;20014;-59
2021/12/26 06:09:58;;;;;;;0.10;0.10;;;;;;;10.28;83.73;99015.38;7367836;19;20034;-59
2021/12/26 06:12:23;;;;;;;0.10;0.10;;;;;;;10.29;83.63;99022.28;7361790;19;20073;-59
2021/12/26 06:14:49;;;;;;;0.10;0.10;;;;;;;10.30;83.65;99014.41;7361773;19;20010;-58
2021/12/26 06:17:15;;;;;;;0.10;0.10;;;;;;;10.21;83.82;98998.31;7365976;19;20010;-58
2021/12/26 06:19:40;;;;;;;0.10;0.10;;;;;;;10.32;83.95;99017.78;7362857;19;20018;-58
2021/12/26 06:22:07;;;;;;;0.03;0.03;;;;;;;10.35;83.74;99014.19;7369172;19;20010;-58
2021/12/26 06:24:33;;;;;;;0.00;0.00;;;;;;;10.35;83.97;99016.78;7370659;19;20066;-59
2021/12/26 06:26:59;;;;;;;0.10;0.10;;;;;;;10.37;83.56;99023.59;7369561;19;20021;-58
2021/12/26 06:29:24;;;;;;;0.00;0.00;;;;;;;10.39;83.56;99020.91;7370663;19;20467;-58
2021/12/26 06:31:50;;;;;;;0.00;0.00;;;;;;;10.38;83.88;99022.69;7366444;19;20006;-59
2021/12/26 06:34:15;;;;;;;0.00;0.00;;;;;;;10.40;83.87;99022.63;7370049;19;20039;-59
2021/12/26 06:36:40;;;;;;;0.10;0.10;;;;;;;10.39;83.68;99024.41;7365618;19;20027;-59
2021/12/26 06:39:06;;;;;;;0.00;0.00;;;;;;;10.40;83.92;99030.47;7370738;19;20411;-58
2021/12/26 06:41:33;;;;;;;0.10;0.10;;;;;;;10.41;83.59;99032.16;7369143;19;20018;-59
2021/12/26 06:43:59;;;;;;;0.10;0.10;;;;;;;10.41;83.72;99037.38;7344631;19;20774;-59
2021/12/26 06:46:24;;;;;;;0.10;0.10;;;;;;;10.40;83.53;99033.06;7369981;19;20016;-58
2021/12/26 06:48:50;;;;;;;0.05;0.05;;;;;;;10.37;83.83;99030.59;7366134;19;20010;-59
2021/12/26 06:51:15;;;;;;;0.00;0.00;;;;;;;10.42;83.83;99044.25;7369520;19;20408;-59
2021/12/26 06:53:41;;;;;;;0.10;0.10;;;;;;;10.31;83.56;99026.53;7368157;19;20022;-59
2021/12/26 06:56:07;;;;;;;0.10;0.10;;;;;;;10.43;83.54;99043.34;7365261;19;20025;-58
2021/12/26 06:58:32;;;;;;;0.08;0.08;;;;;;;10.44;83.41;99047.66;7369164;19;20379;-59
2021/12/26 07:00:58;;;;;;;0.00;0.00;;;;;;;10.45;83.68;99051.97;7369177;19;20011;-58
2021/12/26 07:03:23;;;;;;;0.10;0.10;;;;;;;10.45;83.77;99051.97;7367547;19;20006;-59
2021/12/26 07:05:49;;;;;;;0.10;0.10;;;;;;;10.48;83.30;99056.16;7363705;19;20402;-59
2021/12/26 07:08:14;;;;;;;0.10;0.10;;;;;;;10.50;83.75;99056.97;7365990;19;20022;-58
2021/12/26 07:10:40;;;;;;;0.00;0.00;;;;;;;10.50;83.67;99057.78;7366775;19;20085;-58
2021/12/26 07:13:05;;;;;;;0.10;0.10;;;;;;;10.50;83.24;99057.78;7369105;19;20002;-60
2021/12/26 07:15:31;;;;;;;0.10;0.10;;;;;;;10.52;83.35;99063.78;7364251;19;20027;-59
2021/12/26 07:17:56;;;;;;;0.00;0.00;;;;;;;10.51;83.52;99051.66;7368596;19;20027;-59
2021/12/26 07:20:22;;;;;;;0.10;0.10;;;;;;;10.52;83.29;99050.72;7370000;19;20010;-59
2021/12/26 07:22:47;;;;;;;0.10;0.10;;;;;;;10.52;83.68;99055.09;7365749;19;20006;-58
2021/12/26 07:25:14;;;;;;;0.00;0.00;;;;;;;10.51;83.71;99056.88;7366494;19;20006;-58
2021/12/26 07:27:40;;;;;;;0.10;0.10;;;;;;;10.51;83.40;99059.47;7363647;19;20042;-59
2021/12/26 07:30:07;;;;;;;0.10;0.10;;;;;;;10.54;83.33;99064.56;7359635;19;20482;-59
2021/12/26 07:32:33;;;;;;;0.10;0.10;;;;;;;10.53;83.32;99062.84;7369013;19;20013;-59
2021/12/26 07:34:59;;;;;;;0.00;0.00;;;;;;;10.55;83.78;99071.47;7367102;19;20006;-59
2021/12/26 07:37:25;;;;;;;0.08;0.08;;;;;;;10.56;83.60;99078.38;7355556;19;20138;-59
2021/12/26 07:39:51;;;;;;;0.00;0.00;;;;;;;10.58;83.31;99075.69;7368222;19;20025;-59
2021/12/26 07:42:16;;;;;;;0.00;0.00;;;;;;;10.59;83.51;99079.97;7356065;19;20010;-59
2021/12/26 07:44:42;;;;;;;0.00;0.00;;;;;;;10.51;83.30;99064.69;7357911;19;20040;-57
2021/12/26 07:47:07;;;;;;;0.10;0.10;;;;;;;10.63;83.45;99084.97;7367052;19;20011;-58
2021/12/26 07:49:33;;;;;;;0.10;0.10;;;;;;;10.59;83.35;99075.63;7348464;19;20606;-60
2021/12/26 07:51:59;;;;;;;0.00;0.00;;;;;;;10.64;83.40;99091.91;7368477;19;20022;-59
2021/12/26 07:54:25;;;;;;;0.10;0.10;;;;;;;10.68;83.66;99089.13;7366302;19;21833;-59
2021/12/26 07:56:52;;;;;;;0.10;0.10;;;;;;;10.65;83.68;99084.91;7363370;19;20135;-59
2021/12/26 07:59:17;;;;;;;0.05;0.05;;;;;;;10.70;83.15;99095.13;7359143;19;20030;-58
2021/12/26 08:01:43;;;;;;;0.10;0.10;;;;;;;10.71;83.28;99096.81;7349459;19;20518;-58
2021/12/26 08:04:13;;;;;;;0.10;0.10;;;;;;;10.73;83.09;99095.81;7367301;19;20059;-59
2021/12/26 08:06:39;;;;;;;0.10;0.10;;;;;;;10.69;83.29;99098.66;7362329;19;20013;-59
2021/12/26 08:09:06;;;;;;;0.10;0.10;;;;;;;10.72;83.19;99098.50;7367324;19;20018;-58
2021/12/26 08:11:31;;;;;;;0.10;0.10;;;;;;;10.67;83.20;99095.28;7357267;19;20011;-59
2021/12/26 08:13:58;;;;;;;0.00;0.00;;;;;;;10.60;83.42;99085.16;7366994;19;20031;-58
2021/12/26 08:16:26;;;;;;;0.00;0.00;;;;;;;10.73;83.15;99116.69;7356442;19;20444;-59
2021/12/26 08:18:51;;;;;;;;;;;;;;;10.79;82.96;99110.34;7366055;19;20007;-59
2021/12/26 08:21:16;;;;;;;0.10;0.10;;;;;;;10.70;83.38;99103.81;7367779;19;19922;-58
2021/12/26 08:23:43;;;;;;;0.00;0.00;;;;;;;10.76;83.36;99118.34;7356964;19;20010;-58
2021/12/26 08:26:08;;;;;;;0.08;0.08;;;;;;;10.77;83.20;99114.78;7367960;19;20006;-58
2021/12/26 08:28:34;;;;;;;0.00;0.00;;;;;;;10.76;83.13;99115.72;7348128;19;20047;-58
2021/12/26 08:31:00;;;;;;;0.10;0.10;;;;;;;10.69;83.55;99106.47;7359995;19;20042;-59
2021/12/26 08:33:25;;;;;;;0.10;0.10;;;;;;;10.74;83.23;99117.53;7361917;19;20011;-58
2021/12/26 08:35:52;;;;;;;0.00;0.00;;;;;;;10.74;83.31;99123.59;7350181;19;20017;-59
2021/12/26 08:38:21;;;;;;;0.08;0.08;;;;;;;10.63;83.51;99110.25;7366187;19;20018;-59
2021/12/26 08:40:48;;;;;;;0.00;0.00;;;;;;;10.74;83.60;99118.38;7357531;19;20039;-58
2021/12/26 08:43:15;;;;;;;0.00;0.00;;;;;;;10.74;83.54;99123.59;7366369;19;20074;-59
2021/12/26 08:45:40;;;;;;;0.10;0.10;;;;;;;10.75;83.46;99127.94;7365833;19;20068;-59
2021/12/26 08:48:05;;;;;;;0.10;0.10;;;;;;;10.76;83.19;99140.06;7356748;19;20649;-58
2021/12/26 08:50:31;;;;;;;0.00;0.00;;;;;;;10.76;83.42;99141.84;7365490;19;20034;-58
2021/12/26 08:52:57;;;;;;;0.10;0.10;;;;;;;10.72;83.04;99127.22;7364303;19;20406;-59
2021/12/26 08:55:24;;;;;;;0.00;0.00;;;;;;;10.76;82.91;99132.22;7357141;19;20015;-59
2021/12/26 08:57:53;;;;;;;0.10;0.10;;;;;;;10.64;83.03;99107.56;7360498;19;20112;-59
2021/12/26 09:00:19;;;;;;;0.00;0.00;;;;;;;10.58;83.29;99110.44;7362179;19;20618;-59
2021/12/26 09:02:45;;;;;;;0.00;0.00;;;;;;;10.77;83.36;99143.50;7361061;19;20109;-58
2021/12/26 09:05:12;;;;;;;0.00;0.00;;;;;;;10.78;83.17;99145.19;7346711;19;20069;-58
2021/12/26 09:07:38;;;;;;;0.10;0.10;;;;;;;10.76;83.08;99141.84;7362936;19;20030;-58
2021/12/26 09:10:05;;;;;;;0.10;0.10;;;;;;;10.80;83.03;99153.81;7363212;19;20097;-58
2021/12/26 09:12:30;;;;;;;0.10;0.10;;;;;;;10.79;83.01;99152.09;7361005;19;20048;-58
2021/12/26 09:14:56;;;;;;;0.10;0.10;;;;;;;10.84;83.35;99155.34;7357729;19;20007;-59
2021/12/26 09:17:22;;;;;;;0.05;0.05;;;;;;;10.82;83.22;99151.97;7356033;19;20011;-59
2021/12/26 09:19:48;;;;;;;0.00;0.00;;;;;;;10.86;83.35;99158.75;7363356;19;20018;-58
2021/12/26 09:22:17;;;;;;;0.10;0.10;;;;;;;10.88;83.16;99162.13;7351439;19;20398;-59
2021/12/26 09:24:44;;;;;;;0.00;0.00;;;;;;;10.87;83.37;99160.44;7362580;19;20367;-59
2021/12/26 09:27:09;;;;;;;0.10;0.10;;;;;;;10.84;83.04;99161.41;7359095;19;20010;-58
2021/12/26 09:29:35;;;;;;;0.10;0.10;;;;;;;10.90;82.87;99161.13;7361655;19;20074;-58
2021/12/26 09:32:02;;;;;;;0.00;0.00;;;;;;;10.92;82.91;99168.88;7357839;19;20006;-57
2021/12/26 09:34:29;;;;;;;0.00;0.00;;;;;;;10.94;83.33;99168.81;7362146;19;20819;-59
2021/12/26 09:36:55;;;;;;;0.00;0.00;;;;;;;10.94;83.19;99167.03;7362253;19;20470;-59
2021/12/26 09:39:22;;;;;;;0.00;0.00;;;;;;;10.96;83.18;99169.59;7361644;19;20013;-58
2021/12/26 09:41:48;;;;;;;0.00;0.00;;;;;;;10.98;82.85;99184.25;7355447;19;20041;-58
2021/12/26 09:44:14;;;;;;;0.10;0.10;;;;;;;10.98;82.83;99173.81;7356305;19;20006;-58
2021/12/26 09:46:39;;;;;;;0.00;0.00;;;;;;;10.99;83.01;99170.25;7362962;19;20018;-59
2021/12/26 09:49:05;;;;;;;0.00;0.00;;;;;;;10.99;83.13;99170.25;7356319;19;20014;-59
2021/12/26 09:51:31;;;;;;;0.00;0.00;;;;;;;11.00;82.84;99177.22;7356600;19;20010;-58
2021/12/26 09:53:56;;;;;;;0.10;0.10;;;;;;;10.98;82.68;99173.81;7353900;19;20006;-58
2021/12/26 09:56:22;;;;;;;0.00;0.00;;;;;;;10.98;83.08;99171.19;7370213;19;20022;-59
2021/12/26 09:58:53;;;;;;;0.00;0.00;;;;;;;10.99;83.16;99170.25;7364109;19;20014;-59
2021/12/26 10:01:37;;;;;;;0.10;0.10;;;;;;;11.01;83.04;99178.91;7362231;19;20027;-59
2021/12/26 10:04:24;;;;;;;0.00;0.00;;;;;;;10.99;83.17;99170.25;7361942;19;20010;-59
2021/12/26 10:06:52;;;;;;;0.10;0.10;;;;;;;11.04;83.20;99170.88;7366224;19;20014;-59
2021/12/26 10:09:20;;;;;;;0.10;0.10;;;;;;;11.06;83.44;99160.38;7365518;19;20006;-58
2021/12/26 10:11:48;;;;;;;0.00;0.00;;;;;;;11.11;83.16;99159.22;7362313;19;20010;-58
2021/12/26 10:14:25;;;;;;;0.03;0.03;;;;;;;11.22;83.21;99170.91;7370339;19;20013;-58
2021/12/26 10:16:54;;;;;;;0.03;0.03;;;;;;;11.29;83.63;99154.00;7358157;19;20010;-59
2021/12/26 10:19:20;;;;;;;0.10;0.10;;;;;;;11.40;83.25;99155.16;7365873;19;20898;-59
2021/12/26 10:21:47;;;;;;;0.08;0.08;;;;;;;11.58;83.28;99155.97;7358491;19;20103;-58
2021/12/26 10:24:18;;;;;;;0.00;0.00;;;;;;;11.77;83.02;99158.50;7367606;19;20030;-58
2021/12/26 10:26:50;;;;;;;0.00;0.00;;;;;;;11.97;82.60;99154.88;7362819;19;20010;-58
2021/12/26 10:29:18;;;;;;;0.10;0.10;;;;;;;12.23;82.23;99152.63;7351135;19;20011;-59
2021/12/26 10:31:49;;;;;;;0.10;0.10;;;;;;;12.38;82.11;99154.41;7367864;19;20078;-57
2021/12/26 10:34:19;;;;;;;0.03;0.03;;;;;;;12.42;81.63;99151.53;7356827;19;20017;-58
2021/12/26 10:36:47;;;;;;;0.10;0.10;;;;;;;12.60;81.41;99160.13;7358517;19;20014;-59
2021/12/26 10:39:17;;;;;;;0.00;0.00;;;;;;;12.80;81.22;99166.03;7363811;19;20018;-59
2021/12/26 10:41:51;;;;;;;0.10;0.10;;;;;;;12.96;81.08;99148.50;7367797;19;20020;-58
2021/12/26 10:44:34;;;;;;;0.00;0.00;;;;;;;13.42;80.72;99154.56;7361346;19;20014;-59
2021/12/26 10:47:05;;;;;;;0.00;0.00;;;;;;;13.76;80.02;99163.06;7364159;19;20017;-58
2021/12/26 10:49:37;;;;;;;0.10;0.10;;;;;;;14.12;79.21;99159.97;7368636;19;20089;-59
2021/12/26 10:52:10;;;;;;;0.00;0.00;;;;;;;14.44;78.78;99164.97;7364197;19;20119;-58
2021/12/26 10:54:36;;;;;;;0.10;0.10;;;;;;;14.66;77.73;99154.84;7364553;19;20022;-59
2021/12/26 10:57:12;;;;;;;0.10;0.10;;;;;;;14.99;77.29;99151.81;7365099;19;20010;-59
2021/12/26 10:59:42;;;;;;;0.10;0.10;;;;;;;15.20;76.29;99154.78;7368523;19;20074;-58
2021/12/26 11:02:08;;;;;;;0.10;0.10;;;;;;;15.28;76.11;99152.50;7358276;19;20002;-59
2021/12/26 11:04:35;;;;;;;0.10;0.10;;;;;;;15.39;75.66;99148.31;7366841;19;20006;-59
2021/12/26 11:07:05;;;;;;;0.00;0.00;;;;;;;15.39;75.17;99143.06;7364152;19;20018;-58
2021/12/26 11:09:30;;;;;;;0.10;0.10;;;;;;;15.28;74.93;99136.72;7356300;19;20006;-58
2021/12/26 11:12:09;;;;;;;0.10;0.10;;;;;;;15.41;75.82;99139.41;7365985;19;20002;-59
2021/12/26 11:15:00;;;;;;;0.00;0.00;;;;;;;15.50;76.00;99135.28;7361873;19;20013;-59
2021/12/26 11:17:34;;;;;;;0.10;0.10;;;;;;;15.62;76.32;99139.72;7360799;19;20011;-58
2021/12/26 11:19:59;;;;;;;0.10;0.10;;;;;;;15.70;75.38;99142.69;7360452;19;20002;-59
2021/12/26 11:22:26;;;;;;;0.00;0.00;;;;;;;15.89;75.03;99130.91;7362477;19;20011;-59
2021/12/26 11:24:53;;;;;;;0.10;0.10;;;;;;;16.05;75.15;99131.50;7362272;19;20011;-59
2021/12/26 11:27:22;;;;;;;0.05;0.05;;;;;;;16.17;75.01;99129.78;7360552;19;20102;-59
2021/12/26 11:29:48;;;;;;;0.08;0.08;;;;;;;16.40;75.13;99129.00;7363505;19;20022;-59
2021/12/26 11:32:16;;;;;;;0.10;0.10;;;;;;;16.63;74.50;99132.63;7356892;19;20047;-59
2021/12/26 11:34:45;;;;;;;0.08;0.08;;;;;;;16.81;74.58;99133.94;7358376;19;20034;-59
2021/12/26 11:37:11;;;;;;;0.00;0.00;;;;;;;16.98;74.17;99130.06;7355973;19;20011;-59
2021/12/26 11:39:38;;;;;;;0.10;0.10;;;;;;;17.18;73.75;99139.09;7361334;19;20015;-59